Time;durP1;ratioP1;P1;durP2;ratioP2;P2;SDS_P1;SDS_P2;PMS_P1;PMS_P2;Temp;Humidity;BMP_temperature;BMP_pressure;BME280_temperature;BME280_humidity;BME280_pressure;Samples;Min_cycle;Max_cycle;Signal;HPM_P1;HPM_P2
2021/06/06 00:00:31;;;;;;;9.15;8.20;;;;;;;17.57;99.43;99146.72;4984677;28;104335;-70
2021/06/06 00:03:02;;;;;;;8.70;7.30;;;;;;;17.64;98.95;99150.50;4991477;28;103025;-70
2021/06/06 00:05:33;;;;;;;8.57;7.70;;;;;;;17.58;98.79;99159.09;4985642;28;103328;-70
2021/06/06 00:08:00;;;;;;;8.93;8.02;;;;;;;17.59;99.20;99148.28;4992333;28;103341;-71
2021/06/06 00:10:28;;;;;;;9.57;8.68;;;;;;;17.51;99.18;99148.13;4990564;28;103558;-71
2021/06/06 00:12:56;;;;;;;9.02;8.13;;;;;;;17.48;99.27;99143.06;4985366;28;103029;-70
2021/06/06 00:15:23;;;;;;;9.65;8.38;;;;;;;17.52;98.65;99144.44;4984446;28;103294;-70
2021/06/06 00:17:51;;;;;;;9.63;8.68;;;;;;;17.56;98.20;99140.53;4983711;28;104147;-70
2021/06/06 00:20:19;;;;;;;8.15;7.35;;;;;;;17.52;98.90;99143.59;4984824;28;104758;-70
2021/06/06 00:22:47;;;;;;;9.23;8.38;;;;;;;17.55;98.05;99133.50;4984925;28;103045;-70
2021/06/06 00:25:15;;;;;;;11.10;9.95;;;;;;;17.51;98.04;99134.75;4982030;28;103122;-70
2021/06/06 00:27:42;;;;;;;9.23;8.27;;;;;;;17.42;98.13;99138.28;4984927;28;104770;-70
2021/06/06 00:30:11;;;;;;;10.85;9.75;;;;;;;17.43;98.38;99131.97;4984451;28;104240;-70
2021/06/06 00:32:39;;;;;;;11.55;10.35;;;;;;;17.40;98.61;99130.41;4991989;28;102715;-70
2021/06/06 00:35:09;;;;;;;11.23;9.02;;;;;;;17.45;98.46;99132.66;4972820;28;103404;-70
2021/06/06 00:37:38;;;;;;;7.68;6.95;;;;;;;17.39;99.25;99133.22;4991865;28;104084;-70
2021/06/06 00:40:10;;;;;;;8.43;7.30;;;;;;;17.45;98.73;99137.16;4984873;28;103745;-70
2021/06/06 00:42:39;;;;;;;9.20;8.32;;;;;;;17.49;97.94;99134.03;4984190;28;103116;-70
2021/06/06 00:45:11;;;;;;;8.93;8.02;;;;;;;17.55;97.12;99133.50;4984889;28;102887;-70
2021/06/06 00:47:40;;;;;;;8.32;7.53;;;;;;;17.51;98.55;99131.25;4984067;28;105446;-70
2021/06/06 00:50:15;;;;;;;8.35;7.55;;;;;;;17.38;99.25;99134.19;4984716;28;103589;-70
2021/06/06 00:52:48;;;;;;;9.40;8.52;;;;;;;17.41;98.62;99131.25;4984470;28;102972;-70
2021/06/06 00:55:16;;;;;;;9.60;8.43;;;;;;;17.46;98.28;99134.31;4957381;28;103318;-71
2021/06/06 00:57:45;;;;;;;10.10;9.10;;;;;;;17.41;99.08;99136.59;4983085;28;104015;-70
2021/06/06 01:00:20;;;;;;;11.60;10.30;;;;;;;17.33;99.54;99140.00;4984226;28;105594;-71
2021/06/06 01:02:50;;;;;;;8.57;7.78;;;;;;;17.35;98.25;99126.47;4980407;28;103458;-70
2021/06/06 01:05:27;;;;;;;10.02;8.88;;;;;;;17.40;97.71;99137.59;4966840;28;103008;-70
2021/06/06 01:07:57;;;;;;;8.63;7.88;;;;;;;17.37;98.48;99135.22;4987810;28;104845;-70
2021/06/06 01:10:27;;;;;;;8.45;7.65;;;;;;;17.33;98.76;99139.13;4988166;28;103758;-71
2021/06/06 01:13:03;;;;;;;9.80;8.68;;;;;;;17.39;98.77;99135.91;4989120;28;102942;-71
2021/06/06 01:15:39;;;;;;;7.97;7.05;;;;;;;17.37;98.45;99143.22;4982262;28;103232;-70
2021/06/06 01:18:14;;;;;;;8.05;7.25;;;;;;;17.35;98.93;99137.16;4983659;28;103623;-70
2021/06/06 01:20:53;;;;;;;8.27;7.57;;;;;;;17.40;98.22;99129.59;4982202;28;113306;-70
2021/06/06 01:24:02;;;;;;;6.75;6.13;;;;;;;17.36;97.55;99133.50;4966465;28;103189;-70
2021/06/06 01:26:37;;;;;;;6.88;6.25;;;;;;;17.34;97.86;99124.81;4967068;28;103643;-70
2021/06/06 01:29:19;;;;;;;8.73;7.82;;;;;;;17.28;97.90;99128.91;4983938;28;105432;-70
2021/06/06 01:31:52;;;;;;;6.05;5.55;;;;;;;17.32;98.13;99116.06;4986400;28;103342;-70
2021/06/06 01:34:25;;;;;;;9.05;7.78;;;;;;;17.23;98.01;99124.97;4983379;28;102948;-70
2021/06/06 01:37:01;;;;;;;8.75;7.90;;;;;;;17.23;98.79;99117.81;4994862;28;103089;-70
2021/06/06 01:39:33;;;;;;;7.85;7.13;;;;;;;17.27;97.98;99121.00;4965471;28;103278;-70
2021/06/06 01:42:08;;;;;;;6.30;5.57;;;;;;;17.31;98.45;99115.25;4983584;28;103099;-70
2021/06/06 01:44:37;;;;;;;6.75;6.05;;;;;;;17.27;97.94;99115.66;4983734;28;102830;-70
2021/06/06 01:47:11;;;;;;;6.47;5.88;;;;;;;17.25;97.87;99115.81;4982317;28;103455;-70
2021/06/06 01:49:44;;;;;;;7.57;6.38;;;;;;;17.34;97.79;99119.47;4978767;28;103817;-70
2021/06/06 01:52:15;;;;;;;7.78;6.95;;;;;;;17.24;98.84;99118.63;4975166;28;103952;-70
2021/06/06 01:54:46;;;;;;;5.68;5.18;;;;;;;17.29;98.69;99119.88;4983244;28;103133;-70
2021/06/06 01:57:18;;;;;;;6.90;6.30;;;;;;;17.26;99.08;99112.16;4987829;28;102979;-70
2021/06/06 01:59:50;;;;;;;6.03;5.53;;;;;;;17.19;98.61;99116.41;4996524;28;104985;-70
2021/06/06 02:02:19;;;;;;;8.02;7.15;;;;;;;17.18;97.90;99109.34;4979168;28;110045;-70
2021/06/06 02:04:48;;;;;;;7.55;6.85;;;;;;;17.13;97.92;99110.78;4982385;28;102945;-70
2021/06/06 02:07:21;;;;;;;5.80;5.22;;;;;;;17.13;98.44;99108.94;4984433;28;103157;-70
2021/06/06 02:09:59;;;;;;;6.28;5.68;;;;;;;17.13;98.83;99116.09;4985435;28;114775;-70
2021/06/06 02:12:39;;;;;;;7.05;6.35;;;;;;;17.04;99.23;99112.47;4990144;28;104338;-70
2021/06/06 02:15:10;;;;;;;6.03;5.53;;;;;;;17.07;98.56;99108.66;4982847;28;103039;-70
2021/06/06 02:17:50;;;;;;;5.80;5.30;;;;;;;16.89;99.23;99105.03;4965112;28;103551;-70
2021/06/06 02:20:29;;;;;;;6.10;5.50;;;;;;;16.99;98.08;99113.88;4978146;28;103797;-70
2021/06/06 02:22:58;;;;;;;5.88;5.38;;;;;;;17.04;98.15;99111.66;4983124;28;105069;-70
2021/06/06 02:25:30;;;;;;;5.15;4.65;;;;;;;17.10;97.47;99109.22;4981876;28;103262;-71
2021/06/06 02:28:09;;;;;;;6.90;6.30;;;;;;;16.94;97.44;99113.47;4965897;28;103082;-70
2021/06/06 02:30:42;;;;;;;6.60;5.60;;;;;;;16.99;98.01;99108.53;4981102;28;104564;-69
2021/06/06 02:33:22;;;;;;;5.82;5.22;;;;;;;17.01;97.67;99104.72;4984749;28;105047;-69
2021/06/06 02:35:59;;;;;;;5.95;5.35;;;;;;;16.84;98.72;99109.97;4999284;28;102566;-69
2021/06/06 02:38:36;;;;;;;5.53;5.03;;;;;;;16.92;98.70;99108.28;4982308;28;103790;-69
2021/06/06 02:41:13;;;;;;;4.50;4.10;;;;;;;16.85;98.89;99107.13;4981748;28;112197;-71
2021/06/06 02:43:56;;;;;;;5.85;5.25;;;;;;;16.71;99.02;99105.72;4970948;28;104286;-74
2021/06/06 02:46:26;;;;;;;7.43;6.15;;;;;;;16.61;98.97;99104.03;4963949;28;102958;-73
2021/06/06 02:49:02;;;;;;;5.20;4.65;;;;;;;16.60;99.78;99107.69;4994524;28;103285;-72
2021/06/06 02:51:38;;;;;;;7.53;6.70;;;;;;;16.63;99.33;99102.91;4978914;28;104886;-73
2021/06/06 02:54:11;;;;;;;6.78;5.53;;;;;;;16.55;99.93;99089.44;4981550;28;104855;-72
2021/06/06 02:56:47;;;;;;;7.90;6.90;;;;;;;16.50;99.95;99101.47;4995053;28;104392;-72
2021/06/06 02:59:21;;;;;;;7.10;6.40;;;;;;;16.64;99.63;99109.94;4981792;28;103557;-72
2021/06/06 03:01:52;;;;;;;6.30;5.68;;;;;;;16.67;99.39;99098.97;4984661;28;109799;-72
2021/06/06 03:04:27;;;;;;;8.20;6.57;;;;;;;16.57;99.62;99103.47;4987078;28;103875;-73
2021/06/06 03:07:04;;;;;;;10.45;7.70;;;;;;;16.39;100.00;99102.44;4992540;28;105259;-72
2021/06/06 03:09:34;;;;;;;8.20;7.35;;;;;;;16.40;100.00;99112.09;4985135;28;103562;-74
2021/06/06 03:12:07;;;;;;;9.60;7.10;;;;;;;16.50;100.00;99105.00;4980289;28;105018;-74
2021/06/06 03:14:42;;;;;;;7.15;6.32;;;;;;;16.40;99.95;99106.78;4962281;28;103994;-74
2021/06/06 03:17:25;;;;;;;7.43;6.65;;;;;;;16.40;100.00;99106.78;4980489;28;104185;-74
2021/06/06 03:19:55;;;;;;;7.05;5.82;;;;;;;16.36;100.00;99097.38;4980952;28;102843;-74
2021/06/06 03:22:29;;;;;;;8.00;6.38;;;;;;;16.50;100.00;99107.66;4980134;28;105475;-74
2021/06/06 03:25:04;;;;;;;6.15;5.53;;;;;;;16.39;100.00;99102.44;4984280;28;103681;-74
2021/06/06 03:27:38;;;;;;;7.35;5.72;;;;;;;16.37;100.00;99101.72;4963486;28;102933;-74
2021/06/06 03:30:31;;;;;;;5.38;4.85;;;;;;;16.31;100.00;99104.94;4982259;28;102929;-74
2021/06/06 03:33:04;;;;;;;8.38;5.30;;;;;;;16.34;100.00;99091.31;4989740;28;104500;-74
2021/06/06 03:35:31;;;;;;;6.82;5.43;;;;;;;16.33;100.00;99105.66;4985995;28;104883;-74
2021/06/06 03:38:00;;;;;;;6.57;5.35;;;;;;;16.26;100.00;99099.16;4969285;28;103107;-74
2021/06/06 03:40:35;;;;;;;4.90;4.10;;;;;;;16.40;100.00;99096.13;4981864;28;102763;-74
2021/06/06 03:43:12;;;;;;;5.97;4.53;;;;;;;16.24;100.00;99098.47;4978638;28;103469;-74
2021/06/06 03:45:40;;;;;;;6.82;5.32;;;;;;;16.12;100.00;99099.56;4981216;28;103236;-73
2021/06/06 03:48:09;;;;;;;5.60;5.03;;;;;;;16.12;100.00;99096.88;4981663;28;103079;-73
2021/06/06 03:50:41;;;;;;;5.38;3.80;;;;;;;16.26;100.00;99088.50;4989727;28;104772;-74
2021/06/06 03:53:12;;;;;;;5.20;4.55;;;;;;;16.24;100.00;99098.47;4996008;28;104374;-73
2021/06/06 03:55:42;;;;;;;6.53;5.35;;;;;;;16.14;100.00;99095.75;4966235;28;103833;-75
2021/06/06 03:58:11;;;;;;;8.43;4.35;;;;;;;16.05;100.00;99095.75;4963338;28;103171;-74
2021/06/06 04:00:41;;;;;;;4.85;3.33;;;;;;;16.21;100.00;99096.94;4981961;28;103052;-73
2021/06/06 04:03:11;;;;;;;4.05;2.90;;;;;;;16.23;100.00;99091.44;4991119;28;104099;-74
2021/06/06 04:05:44;;;;;;;4.10;3.67;;;;;;;16.15;99.52;99099.28;4981577;28;103811;-74
2021/06/06 04:08:18;;;;;;;5.97;4.28;;;;;;;16.02;100.00;99101.34;4972256;28;103080;-73
2021/06/06 04:10:53;;;;;;;3.90;3.50;;;;;;;16.10;100.00;99093.53;4963397;28;103025;-73
2021/06/06 04:13:24;;;;;;;3.97;3.58;;;;;;;16.22;99.66;99087.13;4965674;28;104450;-74
2021/06/06 04:15:53;;;;;;;4.40;3.37;;;;;;;16.28;100.00;99094.53;4980388;28;103715;-73
2021/06/06 04:18:24;;;;;;;4.38;2.85;;;;;;;16.28;99.92;99091.88;4967443;28;103042;-73
2021/06/06 04:20:56;;;;;;;3.20;2.78;;;;;;;16.27;99.57;99094.69;4964098;28;102848;-73
2021/06/06 04:23:26;;;;;;;3.40;3.05;;;;;;;16.18;100.00;99085.69;4998087;28;106305;-73
2021/06/06 04:25:55;;;;;;;5.78;3.70;;;;;;;16.15;100.00;99091.28;4982956;28;103649;-73
2021/06/06 04:28:24;;;;;;;4.57;3.03;;;;;;;16.10;100.00;99093.53;4984371;28;102963;-74
2021/06/06 04:30:58;;;;;;;4.05;3.50;;;;;;;15.90;100.00;99091.78;4984620;28;103751;-73
2021/06/06 04:33:28;;;;;;;4.90;3.75;;;;;;;16.02;100.00;99088.03;4958038;28;105863;-73
2021/06/06 04:35:55;;;;;;;3.33;3.05;;;;;;;16.11;100.00;99092.56;4984157;28;103749;-73
2021/06/06 04:38:26;;;;;;;4.97;3.53;;;;;;;16.14;100.00;99090.44;4980271;28;103322;-74
2021/06/06 04:40:57;;;;;;;4.88;3.90;;;;;;;15.98;100.00;99094.59;4983563;28;102988;-73
2021/06/06 04:43:27;;;;;;;3.33;3.03;;;;;;;16.07;100.00;99088.47;4982960;28;105576;-75
2021/06/06 04:45:56;;;;;;;4.13;3.70;;;;;;;15.88;100.00;99089.25;4984150;28;103707;-74
2021/06/06 04:48:27;;;;;;;4.60;3.58;;;;;;;16.10;100.00;99091.72;4978174;28;102953;-74
2021/06/06 04:50:56;;;;;;;5.20;3.67;;;;;;;16.03;100.00;99089.69;4984637;28;102892;-74
2021/06/06 04:53:29;;;;;;;4.80;3.10;;;;;;;16.11;100.00;99085.38;4982020;28;111025;-74
2021/06/06 04:56:01;;;;;;;4.07;3.60;;;;;;;15.94;100.00;99090.53;4968348;28;103213;-74
2021/06/06 04:58:33;;;;;;;4.03;3.00;;;;;;;16.09;100.00;99087.34;4976195;28;102980;-74
2021/06/06 05:01:05;;;;;;;4.82;3.30;;;;;;;16.14;100.00;99081.63;4983845;28;102995;-74
2021/06/06 05:03:32;;;;;;;5.50;3.55;;;;;;;16.13;100.00;99087.94;4989659;28;103953;-75
2021/06/06 05:06:00;;;;;;;3.85;2.92;;;;;;;16.15;100.00;99088.63;4988724;28;104369;-73
2021/06/06 05:08:29;;;;;;;2.88;2.67;;;;;;;16.27;100.00;99089.34;4983934;28;102740;-74
2021/06/06 05:10:56;;;;;;;5.78;3.17;;;;;;;16.03;100.00;99089.69;4986800;28;102837;-74
2021/06/06 05:13:25;;;;;;;4.20;3.38;;;;;;;15.85;100.00;99099.31;4966047;28;103947;-75
2021/06/06 05:15:55;;;;;;;5.00;3.28;;;;;;;16.03;100.00;99097.69;4986741;28;103307;-75
2021/06/06 05:18:27;;;;;;;4.88;3.83;;;;;;;16.02;100.00;99091.53;4986216;28;103082;-73
2021/06/06 05:20:56;;;;;;;4.55;3.20;;;;;;;16.16;100.00;99091.16;4985143;28;102750;-77
2021/06/06 05:23:26;;;;;;;2.75;2.55;;;;;;;16.24;100.00;99085.16;4985193;28;114145;-74
2021/06/06 05:26:00;;;;;;;3.85;3.42;;;;;;;16.05;100.00;99095.75;4966458;28;104495;-77
2021/06/06 05:28:30;;;;;;;4.50;3.35;;;;;;;16.15;100.00;99099.28;4989193;28;102909;-82
2021/06/06 05:31:00;;;;;;;7.57;4.97;;;;;;;15.99;100.00;99101.63;4991237;28;103100;-78
2021/06/06 05:33:27;;;;;;;5.83;4.40;;;;;;;16.09;100.00;99097.16;4991454;28;105685;-80
2021/06/06 05:35:55;;;;;;;5.85;5.10;;;;;;;15.76;100.00;99094.78;4989803;28;103817;-78
2021/06/06 05:38:25;;;;;;;4.47;4.03;;;;;;;16.02;100.00;99104.88;4993266;28;104306;-79
2021/06/06 05:40:53;;;;;;;6.90;5.30;;;;;;;15.86;100.00;99101.03;4991183;28;102855;-81
2021/06/06 05:43:21;;;;;;;4.97;3.80;;;;;;;15.99;100.00;99109.63;4983424;28;103796;-83
2021/06/06 05:45:49;;;;;;;6.30;5.47;;;;;;;15.96;100.00;99096.56;4983986;28;104362;-77
2021/06/06 05:48:18;;;;;;;7.73;5.60;;;;;;;16.01;100.00;99099.66;4982775;28;102750;-78
2021/06/06 05:50:48;;;;;;;5.22;4.72;;;;;;;16.17;100.00;99094.66;4983622;28;103557;-76
2021/06/06 05:53:29;;;;;;;5.13;4.63;;;;;;;16.19;100.00;99093.56;4962559;28;104159;-76
2021/06/06 05:55:57;;;;;;;6.93;5.28;;;;;;;16.16;100.00;99098.31;4980213;28;105067;-76
2021/06/06 05:58:24;;;;;;;7.15;4.32;;;;;;;16.20;100.00;99097.91;4983978;28;102908;-75
2021/06/06 06:00:52;;;;;;;6.00;5.40;;;;;;;16.15;100.00;99102.78;4965978;28;103577;-75
2021/06/06 06:03:21;;;;;;;10.03;6.30;;;;;;;16.06;100.00;99098.28;4981162;28;104045;-77
2021/06/06 06:05:49;;;;;;;7.13;5.90;;;;;;;16.08;100.00;99111.47;4985709;28;105207;-78
2021/06/06 06:08:22;;;;;;;6.85;5.72;;;;;;;15.99;100.00;99101.63;4974237;28;103240;-74
2021/06/06 06:10:50;;;;;;;7.75;5.75;;;;;;;16.04;100.00;99102.06;4991399;28;102946;-75
2021/06/06 06:13:20;;;;;;;6.93;6.20;;;;;;;16.10;100.00;99098.84;4988225;28;104598;-74
2021/06/06 06:15:48;;;;;;;7.70;5.70;;;;;;;16.23;100.00;99099.44;4987530;28;104751;-74
2021/06/06 06:18:18;;;;;;;7.47;6.67;;;;;;;16.21;100.00;99102.25;4988167;28;103059;-75
2021/06/06 06:20:47;;;;;;;7.37;6.53;;;;;;;16.09;100.00;99106.00;4991920;28;103375;-74
2021/06/06 06:23:14;;;;;;;6.53;5.67;;;;;;;16.24;100.00;99104.66;4988183;28;105050;-75
2021/06/06 06:25:42;;;;;;;8.27;7.23;;;;;;;16.16;100.00;99107.16;4989314;28;103709;-76
2021/06/06 06:28:09;;;;;;;5.93;5.33;;;;;;;16.23;100.00;99112.78;4993723;28;103074;-78
2021/06/06 06:30:49;;;;;;;8.63;7.43;;;;;;;16.03;100.00;99111.03;4992662;28;103325;-76
2021/06/06 06:33:26;;;;;;;7.17;6.47;;;;;;;16.15;100.00;99108.13;4986487;28;103808;-76
2021/06/06 06:35:55;;;;;;;8.70;6.95;;;;;;;16.05;100.00;99109.94;4987613;28;103711;-75
2021/06/06 06:38:25;;;;;;;7.63;6.83;;;;;;;16.10;100.00;99114.84;4983964;28;103350;-74
2021/06/06 06:40:53;;;;;;;8.43;6.37;;;;;;;16.20;100.00;99118.38;4990269;28;102964;-74
2021/06/06 06:43:20;;;;;;;7.40;6.70;;;;;;;16.05;100.00;99114.41;4989429;28;104586;-75
2021/06/06 06:45:48;;;;;;;7.40;6.70;;;;;;;16.12;100.00;99118.22;4984713;28;105227;-75
2021/06/06 06:48:18;;;;;;;10.40;7.23;;;;;;;16.02;100.00;99128.00;4989577;28;103075;-77
2021/06/06 06:50:47;;;;;;;9.32;7.05;;;;;;;15.99;100.00;99121.13;4984559;28;103104;-83
2021/06/06 06:53:16;;;;;;;8.10;6.60;;;;;;;16.20;100.00;99115.72;4990611;28;104375;-78
2021/06/06 06:55:44;;;;;;;6.70;6.10;;;;;;;16.28;100.00;99110.53;4985369;28;104749;-81
2021/06/06 06:58:12;;;;;;;7.38;6.68;;;;;;;16.07;100.00;99115.97;4988691;28;103444;-78
2021/06/06 07:00:42;;;;;;;8.10;7.30;;;;;;;16.06;100.00;99124.06;4982308;28;103344;-79
2021/06/06 07:03:12;;;;;;;8.07;6.47;;;;;;;16.18;100.00;99128.34;4985678;28;105948;-79
2021/06/06 07:05:40;;;;;;;6.97;5.53;;;;;;;16.27;100.00;99127.53;4982798;28;103927;-78
2021/06/06 07:08:09;;;;;;;8.00;7.20;;;;;;;16.19;100.00;99119.38;4974364;28;103648;-81
2021/06/06 07:10:40;;;;;;;7.43;6.57;;;;;;;16.16;100.00;99127.63;4982605;28;103805;-80
2021/06/06 07:13:09;;;;;;;6.47;5.97;;;;;;;16.29;100.00;99122.91;4982294;28;103353;-76
2021/06/06 07:15:37;;;;;;;6.13;5.63;;;;;;;16.25;100.00;99129.50;4968960;28;105025;-76
2021/06/06 07:18:07;;;;;;;6.07;5.53;;;;;;;16.04;100.00;99129.56;4968627;28;103118;-77
2021/06/06 07:20:37;;;;;;;6.60;5.90;;;;;;;16.24;100.00;99122.47;4987161;28;103395;-78
2021/06/06 07:23:07;;;;;;;6.73;5.50;;;;;;;16.20;100.00;99131.69;4990149;28;105114;-77
2021/06/06 07:25:35;;;;;;;8.13;7.30;;;;;;;16.08;100.00;99132.81;4989748;28;103698;-78
2021/06/06 07:28:05;;;;;;;7.20;6.37;;;;;;;16.23;100.00;99126.09;4979783;28;102584;-77
2021/06/06 07:30:37;;;;;;;8.15;6.38;;;;;;;16.30;100.00;99127.25;4990120;28;102939;-77
2021/06/06 07:33:06;;;;;;;8.77;7.95;;;;;;;16.35;100.00;99130.34;4985283;28;104987;-76
2021/06/06 07:35:34;;;;;;;7.20;6.50;;;;;;;16.39;100.00;99131.78;4989854;28;103751;-76
2021/06/06 07:38:02;;;;;;;8.07;6.35;;;;;;;16.23;100.00;99132.28;4982621;28;103471;-77
2021/06/06 07:40:34;;;;;;;7.13;5.80;;;;;;;16.54;100.00;99127.75;4987482;28;103989;-77
2021/06/06 07:43:04;;;;;;;9.68;6.75;;;;;;;16.37;100.00;99124.88;4992053;28;105883;-77
2021/06/06 07:45:32;;;;;;;10.32;7.68;;;;;;;16.47;100.00;99128.41;4996338;28;104703;-77
2021/06/06 07:48:00;;;;;;;8.43;7.27;;;;;;;16.42;100.00;99128.00;4995835;28;103510;-77
2021/06/06 07:50:32;;;;;;;10.48;8.52;;;;;;;16.43;100.00;99124.31;4990685;28;103138;-78
2021/06/06 07:53:00;;;;;;;13.03;9.47;;;;;;;16.36;100.00;99133.88;4995157;28;103853;-81
2021/06/06 07:55:28;;;;;;;11.98;8.75;;;;;;;16.30;100.00;99121.91;4996266;28;105132;-78
2021/06/06 07:57:56;;;;;;;9.85;8.30;;;;;;;16.23;100.00;99134.09;4996223;28;103239;-80
2021/06/06 08:00:30;;;;;;;9.32;7.88;;;;;;;16.36;100.00;99141.88;4994138;28;103653;-81
2021/06/06 08:02:57;;;;;;;10.68;8.77;;;;;;;16.26;100.00;99133.81;4995028;28;104449;-82
2021/06/06 08:05:25;;;;;;;10.13;9.03;;;;;;;16.17;100.00;99132.81;4994082;28;103625;-77
2021/06/06 08:07:53;;;;;;;8.68;7.75;;;;;;;16.32;100.00;99130.63;4988945;28;103486;-77
2021/06/06 08:10:23;;;;;;;8.93;8.02;;;;;;;16.36;100.00;99137.38;4996116;28;103086;-76
2021/06/06 08:12:51;;;;;;;10.13;8.40;;;;;;;16.50;100.00;99131.66;4998317;28;104428;-76
2021/06/06 08:15:20;;;;;;;10.73;8.75;;;;;;;16.50;100.00;99133.47;4991241;28;104787;-79
2021/06/06 08:17:49;;;;;;;9.68;7.88;;;;;;;16.57;100.00;99137.28;4991279;28;103522;-78
2021/06/06 08:20:19;;;;;;;8.98;8.13;;;;;;;16.55;100.00;99132.13;4990525;28;103913;-84
2021/06/06 08:22:47;;;;;;;10.45;9.25;;;;;;;16.49;100.00;99129.97;4989928;28;104073;-84
2021/06/06 08:25:16;;;;;;;7.95;7.25;;;;;;;16.69;100.00;99134.38;4989943;28;103798;-84
2021/06/06 08:27:43;;;;;;;10.43;9.20;;;;;;;16.59;100.00;99136.19;4991775;28;102739;-84
2021/06/06 08:30:14;;;;;;;11.65;9.52;;;;;;;16.39;100.00;99131.78;4991520;28;103182;-84
2021/06/06 08:32:42;;;;;;;11.20;10.10;;;;;;;16.35;100.00;99125.03;4988286;28;104055;-85
2021/06/06 08:35:13;;;;;;;10.63;8.48;;;;;;;16.55;100.00;99125.94;4984359;28;105621;-84
2021/06/06 08:37:40;;;;;;;11.83;10.23;;;;;;;16.70;100.00;99128.03;4993114;28;103223;-85
2021/06/06 08:40:11;;;;;;;12.80;10.15;;;;;;;16.74;100.00;99132.13;4983756;28;102970;-89
2021/06/06 08:42:44;;;;;;;12.27;10.68;;;;;;;16.50;100.00;99123.66;4981477;28;103946;-85
2021/06/06 08:45:21;;;;;;;13.10;11.35;;;;;;;16.60;100.00;99134.34;4983141;28;104159;-87
2021/06/06 08:47:49;;;;;;;11.80;10.05;;;;;;;16.60;100.00;99129.88;4985769;28;103010;-86
2021/06/06 08:50:22;;;;;;;11.80;10.60;;;;;;;16.61;100.00;99126.22;4991175;28;103436;-88
2021/06/06 08:53:00;;;;;;;12.80;11.27;;;;;;;16.40;100.00;99136.09;4991808;28;104298;-89
2021/06/06 08:55:35;;;;;;;15.68;11.52;;;;;;;16.44;100.00;99132.19;4984567;28;107324;-83
2021/06/06 08:58:18;;;;;;;15.68;12.55;;;;;;;16.57;100.00;99127.47;4987882;28;103397;-83
2021/06/06 09:00:50;;;;;;;10.65;9.48;;;;;;;16.64;100.00;99130.44;4991889;28;103331;-83
2021/06/06 09:03:22;;;;;;;14.98;12.75;;;;;;;16.74;100.00;99128.63;4987205;28;104466;-83
2021/06/06 09:05:59;;;;;;;17.48;12.52;;;;;;;16.79;100.00;99129.03;4991398;28;103662;-83
2021/06/06 09:08:31;;;;;;;9.90;8.90;;;;;;;16.86;100.00;99134.66;4990432;28;103499;-83
2021/06/06 09:11:01;;;;;;;14.02;11.10;;;;;;;16.84;100.00;99125.97;4989754;28;103338;-83
2021/06/06 09:13:31;;;;;;;14.57;11.65;;;;;;;16.80;100.00;99134.25;4977151;28;107113;-83
2021/06/06 09:16:10;;;;;;;14.15;11.60;;;;;;;16.96;100.00;99131.00;4982348;28;103655;-83
2021/06/06 09:18:38;;;;;;;9.85;8.88;;;;;;;17.04;100.00;99127.66;4980774;28;103117;-81
2021/06/06 09:21:12;;;;;;;14.75;13.20;;;;;;;17.06;100.00;99125.69;4982843;28;103159;-81
2021/06/06 09:23:40;;;;;;;14.50;12.32;;;;;;;17.02;100.00;99134.94;4982838;28;104054;-80
2021/06/06 09:26:11;;;;;;;20.92;17.13;;;;;;;16.89;100.00;99131.72;4983185;28;105007;-83
2021/06/06 09:28:40;;;;;;;20.88;15.65;;;;;;;17.09;100.00;99133.41;4977827;28;103220;-83
2021/06/06 09:31:10;;;;;;;20.13;16.25;;;;;;;17.05;100.00;99132.84;4982914;28;103830;-84
2021/06/06 09:33:42;;;;;;;19.40;15.52;;;;;;;17.16;100.00;99131.84;4980884;28;112631;-84
2021/06/06 09:36:20;;;;;;;22.08;16.88;;;;;;;17.08;100.00;99137.91;4982734;28;104248;-84
2021/06/06 09:38:50;;;;;;;15.35;12.63;;;;;;;17.34;100.00;99139.00;4982824;28;103619;-83
2021/06/06 09:41:23;;;;;;;22.95;18.30;;;;;;;17.44;100.00;99141.66;4982628;28;103203;-82
2021/06/06 09:44:00;;;;;;;24.35;20.60;;;;;;;16.95;100.00;99136.50;4980174;28;104560;-85
2021/06/06 09:46:34;;;;;;;26.30;20.55;;;;;;;16.99;100.00;99143.22;4981963;28;103674;-84
2021/06/06 09:49:26;;;;;;;31.92;25.88;;;;;;;16.70;100.00;99152.06;4981487;28;102900;-83
2021/06/06 09:51:57;;;;;;;29.38;25.50;;;;;;;16.89;100.00;99151.25;4981293;28;103229;-84
2021/06/06 09:54:29;;;;;;;36.75;29.38;;;;;;;16.50;100.00;99153.00;4981943;28;103506;-84
2021/06/06 09:57:00;;;;;;;36.15;29.77;;;;;;;16.73;100.00;99149.13;4985004;28;105242;-85
2021/06/06 09:59:30;;;;;;;32.63;27.50;;;;;;;16.92;100.00;99145.63;4970559;28;103038;-87
2021/06/06 10:02:03;;;;;;;35.72;29.70;;;;;;;17.00;100.00;99143.09;4987936;28;103066;-87
2021/06/06 10:04:33;;;;;;;33.47;28.33;;;;;;;17.11;100.00;99144.78;4980830;28;103923;-80
2021/06/06 10:07:13;;;;;;;32.20;26.98;;;;;;;17.32;100.00;99153.47;4981849;28;104789;-83
2021/06/06 10:09:48;;;;;;;36.13;31.15;;;;;;;16.96;100.00;99151.50;4981954;28;104559;-82
2021/06/06 10:12:26;;;;;;;34.85;28.88;;;;;;;17.09;100.00;99150.28;4982468;28;103246;-80
2021/06/06 10:14:58;;;;;;;33.92;30.10;;;;;;;17.22;100.00;99152.66;4981317;28;104279;-83
2021/06/06 10:17:35;;;;;;;36.35;31.08;;;;;;;17.28;100.00;99152.94;4981880;28;112331;-82
2021/06/06 10:20:11;;;;;;;34.90;31.08;;;;;;;17.08;100.00;99142.38;4981763;28;102995;-82
2021/06/06 10:22:46;;;;;;;31.63;27.70;;;;;;;17.27;100.00;99150.38;4978935;28;103090;-80
2021/06/06 10:25:21;;;;;;;32.40;28.25;;;;;;;17.25;100.00;99157.69;4981307;28;103852;-84
2021/06/06 10:27:53;;;;;;;32.30;28.80;;;;;;;17.47;100.00;99154.72;4982074;28;103658;-79
2021/06/06 10:30:28;;;;;;;38.40;31.70;;;;;;;16.89;100.00;99155.75;4982271;28;103046;-82
2021/06/06 10:33:07;;;;;;;37.63;32.25;;;;;;;17.03;100.00;99158.00;4982370;28;103010;-79
2021/06/06 10:35:35;;;;;;;40.03;31.30;;;;;;;17.00;100.00;99153.78;4981810;28;103537;-88
2021/06/06 10:38:04;;;;;;;40.72;34.05;;;;;;;17.20;100.00;99159.97;4980940;28;103897;-87
2021/06/06 10:40:38;;;;;;;40.22;34.08;;;;;;;17.28;100.00;99157.41;4982930;28;103046;-89
2021/06/06 10:43:12;;;;;;;42.33;34.80;;;;;;;17.38;100.00;99168.91;4983937;28;102944;-87
2021/06/06 10:45:46;;;;;;;40.40;33.88;;;;;;;17.31;100.00;99165.16;4982630;28;104175;-89
2021/06/06 10:48:23;;;;;;;36.90;30.85;;;;;;;17.27;100.00;99161.06;4982770;28;104272;-88
2021/06/06 10:50:54;;;;;;;40.25;35.38;;;;;;;17.16;100.00;99163.88;4981649;28;103013;-84
2021/06/06 10:53:27;;;;;;;47.28;37.35;;;;;;;17.15;100.00;99156.88;4982696;28;103296;-86
2021/06/06 10:56:01;;;;;;;49.03;37.75;;;;;;;17.11;100.00;99152.78;4969618;28;104038;-82
2021/06/06 10:58:34;;;;;;;49.75;37.03;;;;;;;17.51;100.00;99149.94;4982122;28;104635;-85
2021/06/06 11:01:07;;;;;;;49.22;39.13;;;;;;;17.38;100.00;99158.25;4972227;28;102642;-82
2021/06/06 11:03:36;;;;;;;67.07;43.90;;;;;;;17.48;100.00;99151.06;4982026;28;103217;-84
2021/06/06 11:06:19;;;;;;;60.95;44.70;;;;;;;17.25;100.00;99147.88;4982721;28;104255;-85
2021/06/06 11:08:48;;;;;;;50.83;39.83;;;;;;;17.27;100.00;99150.38;4988692;28;103841;-82
2021/06/06 11:11:29;;;;;;;64.68;47.00;;;;;;;17.28;100.00;99147.59;4982703;28;103086;-84
2021/06/06 11:14:02;;;;;;;63.42;47.10;;;;;;;17.17;100.00;99152.22;4972400;28;103173;-75
2021/06/06 11:16:37;;;;;;;64.72;45.67;;;;;;;17.13;100.00;99151.66;4990511;28;104440;-78
2021/06/06 11:19:11;;;;;;;66.75;48.38;;;;;;;17.12;100.00;99147.28;4982158;28;103637;-77
2021/06/06 11:21:47;;;;;;;55.83;42.65;;;;;;;17.59;100.00;99145.59;4981936;28;102958;-78
2021/06/06 11:24:46;;;;;;;60.20;44.55;;;;;;;17.00;100.00;99139.59;4991352;28;103163;-76
2021/06/06 11:27:33;;;;;;;57.35;42.50;;;;;;;17.25;100.00;99142.53;4988763;28;106665;-75
2021/06/06 11:30:32;;;;;;;41.97;34.15;;;;;;;17.57;100.00;99139.53;4974211;28;105182;-77
2021/06/06 11:33:02;;;;;;;54.05;41.08;;;;;;;17.76;100.00;99133.31;4972565;28;103023;-77
2021/06/06 11:35:50;;;;;;;47.72;37.78;;;;;;;17.54;100.00;99128.31;4965201;28;105427;-79